Girolata — FPOD — position and weather

sailwx.info

Track history (hours):
 
Tides and Currents Weather Stations Pressure Air Temp Water Temp Dewpoint Dewpoint Depression Visibility Wind Speed Wind Dir Waves Ship Positions

Girolata

Last reported at 2020-Mar-21 03:00 UTC. Time now 2020-Apr-05 05:58 UTC.
Position N 38°38' E 013°25'.
Warning: this ship's position is 15 days out of date.

Length 177 m; beam 27 m.

Type: Ship. MMSI: 226245000.

Date/timePositionNaut miles runAvg speedWind from/ knotsBaromVisibWave heightAir tempDewpointWater temp
2020-Mar-21 03:00N 38°38' E 013°25'917.3
2020-Mar-21 02:30N 38°30' E 013°29'917.4
2020-Mar-21 02:00N 38°22' E 013°33'917.6
2020-Mar-21 01:30N 38°14' E 013°37'917.6
2020-Mar-21 01:00N 38°05' E 013°41'6 5.8
2020-Mar-20 23:54N 37°59' E 013°42'0 0.0
2020-Mar-20 22:59N 37°59' E 013°42'1 0.8
2020-Mar-20 21:31N 37°60' E 013°44'816.4
2020-Mar-20 21:00N 38°07' E 013°40'1019.7
2020-Mar-20 20:30N 38°17' E 013°35'1919.3
2020-Mar-20 19:30N 38°35' E 013°27'1019.6
2020-Mar-20 19:00N 38°44' E 013°22'10220.3
2020-Mar-20 13:59N 40°19' E 012°35'2120.8
2020-Mar-20 13:00N 40°39' E 012°25'4220.9
2020-Mar-20 11:00N 41°18' E 012°06'40 1.6
2020-Mar-19 10:00N 40°40' E 012°25'1121.2
2020-Mar-19 09:30N 40°30' E 012°30'2 0.1
2020-Mar-18 13:28N 40°32' E 012°29'114 3.4
2020-Mar-17 03:30N 38°45' E 013°22'4919.6
2020-Mar-17 01:00N 37°59' E 013°43'0 0.2
2020-Mar-16 22:58N 37°59' E 013°42'0 0.0
2020-Mar-16 21:25N 37°59' E 013°42'0 0.0
2020-Mar-16 19:25N 37°59' E 013°42'0 0.0
2020-Mar-16 17:25N 37°59' E 013°42'0 0.0
2020-Mar-16 14:55N 37°59' E 013°42'0 0.0
2020-Mar-16 14:25N 37°59' E 013°42'0 0.0
2020-Mar-16 11:58N 37°59' E 013°42'46 9.3
2020-Mar-16 07:01N 38°43' E 013°23'23 0.8
2020-Mar-15 03:30N 38°22' E 013°33'2120.8
2020-Mar-15 02:30N 38°02' E 013°43'3 2.0
2020-Mar-15 00:58N 37°59' E 013°42'0 0.0
2020-Mar-14 22:25N 37°59' E 013°42'2 1.6
2020-Mar-14 21:30N 37°59' E 013°44'816.2
2020-Mar-14 21:00N 38°07' E 013°45'2019.7
2020-Mar-14 20:00N 38°27' E 013°48'1019.9
2020-Mar-14 19:30N 38°37' E 013°49'10919.8
2020-Mar-14 14:00N 40°25' E 014°07'26 7.4
2020-Mar-14 10:29N 40°50' E 014°16'0 0.0
2020-Mar-14 09:00N 40°50' E 014°16'2113.5
2020-Mar-14 07:26N 40°30' E 014°08'2121.3
2020-Mar-14 06:26N 40°09' E 014°04'7321.4
2020-Mar-14 03:00N 38°56' E 013°53'1020.8
2020-Mar-14 02:31N 38°46' E 013°51'2121.1
2020-Mar-14 01:30N 38°25' E 013°48'26 8.5
2020-Mar-13 22:28N 37°59' E 013°42'2010.0
2020-Mar-13 20:30N 38°18' E 013°35'3221.2
2020-Mar-13 19:00N 38°48' E 013°20'102 3.0
2020-Mar-12 09:17N 40°23' E 012°33'11221.3
2020-Mar-12 04:01N 38°38' E 013°25'3322.0
2020-Mar-12 02:31N 38°07' E 013°40'8 5.1
2020-Mar-12 00:58N 37°59' E 013°42'0 0.0
2020-Mar-11 23:22N 37°59' E 013°42'0 0.0
2020-Mar-11 22:55N 37°59' E 013°42'0 0.0
2020-Mar-11 22:00N 37°59' E 013°42'3316.3
2020-Mar-11 20:00N 38°30' E 013°29'9820.6
2020-Mar-11 15:14N 40°02' E 012°44'921.4
2020-Mar-11 14:48N 40°11' E 012°39'  
Track history (hours):
 
Tides and Currents Weather Stations Pressure Air Temp Water Temp Dewpoint Dewpoint Depression Visibility Wind Speed Wind Dir Waves Ship Positions

Girolata

Last reported at 2020-Mar-21 03:00 UTC. Time now 2020-Apr-05 05:58 UTC.
Position N 38°38' E 013°25'.
Warning: this ship's position is 15 days out of date.

Length 177 m; beam 27 m.

Type: Ship. MMSI: 226245000.

Date/timePositionNaut miles runAvg speedWind from/ knotsBaromVisibWave heightAir tempDewpointWater temp
2020-Mar-21 03:00N 38°38' E 013°25'917.3
2020-Mar-21 02:30N 38°30' E 013°29'917.4
2020-Mar-21 02:00N 38°22' E 013°33'917.6
2020-Mar-21 01:30N 38°14' E 013°37'917.6
2020-Mar-21 01:00N 38°05' E 013°41'6 5.8
2020-Mar-20 23:54N 37°59' E 013°42'0 0.0
2020-Mar-20 22:59N 37°59' E 013°42'1 0.8
2020-Mar-20 21:31N 37°60' E 013°44'816.4
2020-Mar-20 21:00N 38°07' E 013°40'1019.7
2020-Mar-20 20:30N 38°17' E 013°35'1919.3
2020-Mar-20 19:30N 38°35' E 013°27'1019.6
2020-Mar-20 19:00N 38°44' E 013°22'10220.3
2020-Mar-20 13:59N 40°19' E 012°35'2120.8
2020-Mar-20 13:00N 40°39' E 012°25'4220.9
2020-Mar-20 11:00N 41°18' E 012°06'40 1.6
2020-Mar-19 10:00N 40°40' E 012°25'1121.2
2020-Mar-19 09:30N 40°30' E 012°30'2 0.1
2020-Mar-18 13:28N 40°32' E 012°29'114 3.4
2020-Mar-17 03:30N 38°45' E 013°22'4919.6
2020-Mar-17 01:00N 37°59' E 013°43'0 0.2
2020-Mar-16 22:58N 37°59' E 013°42'0 0.0
2020-Mar-16 21:25N 37°59' E 013°42'0 0.0
2020-Mar-16 19:25N 37°59' E 013°42'0 0.0
2020-Mar-16 17:25N 37°59' E 013°42'0 0.0
2020-Mar-16 14:55N 37°59' E 013°42'0 0.0
2020-Mar-16 14:25N 37°59' E 013°42'0 0.0
2020-Mar-16 11:58N 37°59' E 013°42'46 9.3
2020-Mar-16 07:01N 38°43' E 013°23'23 0.8
2020-Mar-15 03:30N 38°22' E 013°33'2120.8
2020-Mar-15 02:30N 38°02' E 013°43'3 2.0
2020-Mar-15 00:58N 37°59' E 013°42'0 0.0
2020-Mar-14 22:25N 37°59' E 013°42'2 1.6
2020-Mar-14 21:30N 37°59' E 013°44'816.2
2020-Mar-14 21:00N 38°07' E 013°45'2019.7
2020-Mar-14 20:00N 38°27' E 013°48'1019.9
2020-Mar-14 19:30N 38°37' E 013°49'10919.8
2020-Mar-14 14:00N 40°25' E 014°07'26 7.4
2020-Mar-14 10:29N 40°50' E 014°16'0 0.0
2020-Mar-14 09:00N 40°50' E 014°16'2113.5
2020-Mar-14 07:26N 40°30' E 014°08'2121.3
2020-Mar-14 06:26N 40°09' E 014°04'7321.4
2020-Mar-14 03:00N 38°56' E 013°53'1020.8
2020-Mar-14 02:31N 38°46' E 013°51'2121.1
2020-Mar-14 01:30N 38°25' E 013°48'26 8.5
2020-Mar-13 22:28N 37°59' E 013°42'2010.0
2020-Mar-13 20:30N 38°18' E 013°35'3221.2
2020-Mar-13 19:00N 38°48' E 013°20'102 3.0
2020-Mar-12 09:17N 40°23' E 012°33'11221.3
2020-Mar-12 04:01N 38°38' E 013°25'3322.0
2020-Mar-12 02:31N 38°07' E 013°40'8 5.1
2020-Mar-12 00:58N 37°59' E 013°42'0 0.0
2020-Mar-11 23:22N 37°59' E 013°42'0 0.0
2020-Mar-11 22:55N 37°59' E 013°42'0 0.0
2020-Mar-11 22:00N 37°59' E 013°42'3316.3
2020-Mar-11 20:00N 38°30' E 013°29'9820.6
2020-Mar-11 15:14N 40°02' E 012°44'921.4
2020-Mar-11 14:48N 40°11' E 012°39'  

Dump ship's entire track history